Honea Path, South Carolina
Current Conditions -  °F | °C
As of 6:56 PM on Monday 24 Nov 2014 (Local Time) from KAND Reporting Station
Clear Clear  
Wind Chill: 61°   Ceiling: Unl
Heat Index: 61°   Visibility: 10mi
Dew Point: 53°   Wind: 0mph
Humidity: 75%   Direction: NA
Pressure: 29.85"   Gusts: NA
Location:  34.45°N, 82.39°W
Report Text: KAND 242356Z AUTO 00000KT 10SM CLR 16/12 A2985 RMK AO2 SLP104 T01610117 10233 20161 53021
Loading
Personal Weather Stations






























Interactive Weather Map New forecast layout! Learn more

10-Day Weather Forecast

Advertisements
Track Severe Weather on mobile